Time;durP1;ratioP1;P1;durP2;ratioP2;P2;SDS_P1;SDS_P2;PMS_P1;PMS_P2;Temp;Humidity;BMP_temperature;BMP_pressure;BME280_temperature;BME280_humidity;BME280_pressure;Samples;Min_cycle;Max_cycle;Signal;HPM_P1;HPM_P2
2023/09/22 05:45:26;;;;;;;0.73;0.68;;;;;;;16.10;63.03;95569.06;5110750;27;20372;-74
2023/09/22 05:47:54;;;;;;;1.35;0.40;;;;;;;16.15;63.03;95560.44;5109984;28;20082;-73
2023/09/22 05:50:23;;;;;;;1.00;0.57;;;;;;;16.18;63.30;95557.31;5109387;28;20051;-74
2023/09/22 05:52:50;;;;;;;0.38;0.30;;;;;;;16.19;64.60;95540.50;5109686;28;20051;-74
2023/09/22 05:55:19;;;;;;;3.20;0.82;;;;;;;16.22;64.87;95547.91;5107555;28;20044;-74
2023/09/22 05:57:47;;;;;;;2.08;0.73;;;;;;;16.26;65.31;95562.16;5107389;28;20090;-72
2023/09/22 06:00:16;;;;;;;2.63;0.65;;;;;;;16.31;65.41;95564.88;5108747;28;20059;-72
2023/09/22 06:02:50;;;;;;;2.10;0.82;;;;;;;16.37;66.24;95561.25;5107148;28;20043;-74
2023/09/22 06:05:19;;;;;;;1.05;0.70;;;;;;;16.44;65.87;95554.00;5105432;28;20078;-72
2023/09/22 06:07:46;;;;;;;1.15;0.60;;;;;;;16.52;65.45;95536.19;5111126;28;20134;-73
2023/09/22 06:10:14;;;;;;;0.95;0.82;;;;;;;16.46;66.13;95519.53;5111717;28;20116;-74
2023/09/22 06:12:42;;;;;;;2.72;0.90;;;;;;;16.38;66.40;95528.66;5111205;28;20101;-74
2023/09/22 06:15:12;;;;;;;1.58;0.60;;;;;;;16.39;67.87;95556.56;5110505;28;20047;-74
2023/09/22 06:17:40;;;;;;;2.28;0.55;;;;;;;16.48;67.72;95562.97;5110721;28;20137;-73
2023/09/22 06:20:13;;;;;;;1.48;0.95;;;;;;;16.52;68.20;95570.41;5110870;28;20529;-73
2023/09/22 06:22:43;;;;;;;3.75;0.90;;;;;;;16.55;67.28;95585.69;5108058;28;20048;-73
2023/09/22 06:25:13;;;;;;;1.73;1.00;;;;;;;16.59;68.44;95602.59;5110057;28;20048;-73
2023/09/22 06:27:42;;;;;;;0.82;0.70;;;;;;;16.60;66.72;95614.75;5109736;28;20047;-73
2023/09/22 06:30:11;;;;;;;1.58;0.90;;;;;;;16.58;66.84;95614.19;5110025;28;20058;-73
2023/09/22 06:32:41;;;;;;;0.90;0.57;;;;;;;16.61;68.16;95616.31;5108663;28;20127;-73
2023/09/22 06:35:11;;;;;;;1.35;0.88;;;;;;;16.64;67.16;95621.13;5101547;28;20130;-74
2023/09/22 06:37:41;;;;;;;3.75;0.90;;;;;;;16.63;66.69;95620.31;5098116;28;20044;-73
2023/09/22 06:40:11;;;;;;;1.13;0.85;;;;;;;16.62;66.45;95628.47;5090205;28;20051;-74
2023/09/22 06:42:44;;;;;;;1.40;1.00;;;;;;;16.57;66.99;95625.75;5092760;28;20048;-73
2023/09/22 06:45:14;;;;;;;1.02;0.85;;;;;;;16.59;67.08;95639.47;5090539;28;20112;-73
2023/09/22 06:47:42;;;;;;;10.23;2.13;;;;;;;16.63;67.49;95640.56;5093787;28;20105;-74
2023/09/22 06:50:11;;;;;;;4.35;1.35;;;;;;;16.65;67.06;95639.28;5097388;28;20055;-74
2023/09/22 06:52:40;;;;;;;2.97;1.42;;;;;;;16.65;66.47;95641.13;5099542;28;20048;-73
2023/09/22 06:55:09;;;;;;;2.42;1.17;;;;;;;16.67;67.11;95637.22;5085004;28;20047;-73
2023/09/22 06:57:40;;;;;;;1.17;0.82;;;;;;;16.68;67.29;95656.44;5075486;28;20059;-73
2023/09/22 07:00:15;;;;;;;1.00;0.90;;;;;;;16.73;68.34;95666.25;5076896;28;20531;-73
2023/09/22 07:02:44;;;;;;;1.42;1.13;;;;;;;16.75;67.73;95662.34;5079489;28;20048;-74
2023/09/22 07:05:13;;;;;;;1.17;1.08;;;;;;;16.74;67.38;95663.38;5089147;28;20044;-74
2023/09/22 07:07:41;;;;;;;1.38;0.70;;;;;;;16.73;67.85;95658.38;5076924;28;20048;-73
2023/09/22 07:10:10;;;;;;;1.95;0.75;;;;;;;16.76;70.21;95666.56;5078813;28;20044;-74
2023/09/22 07:12:38;;;;;;;2.13;0.70;;;;;;;16.77;68.03;95668.16;5098492;28;20090;-73
2023/09/22 07:15:07;;;;;;;1.02;0.93;;;;;;;16.76;68.08;95669.19;5102232;28;20043;-74
2023/09/22 07:17:35;;;;;;;2.20;0.93;;;;;;;16.77;67.30;95670.81;5087480;28;20044;-80
2023/09/22 07:20:08;;;;;;;2.65;0.82;;;;;;;16.80;68.05;95667.69;5079010;28;20053;-80
2023/09/22 07:22:37;;;;;;;1.30;1.20;;;;;;;16.84;67.23;95668.81;5077839;28;20520;-80
2023/09/22 07:25:06;;;;;;;2.05;1.30;;;;;;;16.81;66.65;95660.59;5079348;28;20048;-80
2023/09/22 07:41:19;;;;;;;2.60;2.40;;;;;;;16.76;69.63;95681.56;5874972;23;20944;-78
2023/09/22 07:43:47;;;;;;;3.35;3.00;;;;;;;16.78;68.36;95674.22;5016610;28;20073;-79
2023/09/22 07:46:15;;;;;;;2.90;2.70;;;;;;;16.78;69.04;95668.94;4998787;28;20077;-79
2023/09/22 07:56:02;;;;;;;8.50;3.15;;;;;;;16.68;68.98;95670.41;5264146;22;20050;-78
2023/09/22 07:58:31;;;;;;;5.63;2.97;;;;;;;16.69;68.58;95671.22;4996346;28;20081;-79
2023/09/22 08:00:59;;;;;;;7.40;3.40;;;;;;;16.64;68.26;95669.31;4996297;28;20112;-79
2023/09/22 08:03:54;;;;;;;3.25;2.95;;;;;;;16.59;69.74;95677.13;4982174;28;20050;-78
2023/09/22 08:09:52;;;;;;;3.75;2.50;;;;;;;16.42;69.94;95671.91;4979449;28;20506;-79
2023/09/22 08:18:04;;;;;;;3.45;2.33;;;;;;;16.28;70.42;95657.47;4994566;28;20272;-80
2023/09/22 08:20:33;;;;;;;3.42;2.80;;;;;;;16.26;70.47;95649.00;5010540;28;20056;-80
2023/09/22 08:23:01;;;;;;;2.55;2.20;;;;;;;16.24;70.89;95653.72;5005609;28;20053;-80
2023/09/22 08:25:30;;;;;;;3.97;2.97;;;;;;;16.24;70.84;95661.59;5006123;28;20048;-79
2023/09/22 08:27:58;;;;;;;2.47;2.00;;;;;;;16.26;71.32;95673.47;5012873;28;20053;-78
2023/09/22 08:30:26;;;;;;;3.42;1.95;;;;;;;16.32;71.87;95666.47;5008638;28;20057;-79
2023/09/22 08:32:54;;;;;;;2.22;2.05;;;;;;;16.36;71.95;95675.47;5007298;28;20056;-79
2023/09/22 08:35:24;;;;;;;2.40;2.20;;;;;;;16.37;71.60;95669.16;5010020;28;20062;-80
2023/09/22 08:37:52;;;;;;;2.10;1.95;;;;;;;16.38;70.92;95673.41;5028865;28;20054;-80
2023/09/22 08:40:19;;;;;;;2.47;2.25;;;;;;;16.40;71.27;95681.88;5009688;28;20100;-79
2023/09/22 08:42:51;;;;;;;4.15;2.28;;;;;;;16.41;71.03;95675.53;4995042;28;20050;-80
2023/09/22 08:45:19;;;;;;;1.83;1.70;;;;;;;16.42;71.46;95682.41;4995286;28;20047;-79
2023/09/22 08:47:48;;;;;;;2.28;2.08;;;;;;;16.46;71.26;95678.28;4994980;28;20054;-79
2023/09/22 08:50:19;;;;;;;2.10;1.90;;;;;;;16.46;71.29;95680.09;5008569;28;20062;-79
2023/09/22 08:52:51;;;;;;;2.58;2.22;;;;;;;16.43;71.27;95686.63;5004585;28;20053;-79
2023/09/22 08:55:20;;;;;;;1.98;1.77;;;;;;;16.43;71.19;95686.63;4992665;28;20050;-80
2023/09/22 08:57:49;;;;;;;2.15;1.70;;;;;;;16.44;71.06;95688.25;5003267;28;20072;-79
2023/09/22 09:00:20;;;;;;;1.98;1.83;;;;;;;16.43;70.73;95689.28;5009036;28;20073;-80
2023/09/22 09:02:49;;;;;;;2.28;2.03;;;;;;;16.42;71.10;95700.84;4976578;28;20450;-79
2023/09/22 09:05:23;;;;;;;3.60;2.88;;;;;;;16.44;73.19;95708.47;4979282;28;20426;-78
2023/09/22 09:07:53;;;;;;;2.88;1.92;;;;;;;16.47;72.88;95697.50;5010715;28;20116;-78
2023/09/22 09:10:31;;;;;;;2.65;1.70;;;;;;;16.48;71.87;95691.97;4995081;28;20050;-78
2023/09/22 09:13:02;;;;;;;1.80;1.67;;;;;;;16.55;71.83;95685.75;4994034;28;20053;-79
2023/09/22 09:15:40;;;;;;;3.42;1.90;;;;;;;16.61;72.23;95684.78;5008612;28;20132;-79
2023/09/22 09:18:11;;;;;;;1.80;1.60;;;;;;;16.66;71.27;95677.75;5006048;28;20057;-79
2023/09/22 09:20:41;;;;;;;2.60;1.67;;;;;;;16.67;70.65;95673.28;5010530;28;20132;-79
2023/09/22 09:23:17;;;;;;;1.98;1.60;;;;;;;16.69;72.24;95676.47;4994651;28;20054;-79
2023/09/22 09:25:46;;;;;;;1.45;1.30;;;;;;;16.72;71.25;95677.81;4993897;28;20050;-79
2023/09/22 09:28:16;;;;;;;2.15;1.65;;;;;;;16.76;71.89;95687.63;5000548;28;20085;-80
2023/09/22 09:30:52;;;;;;;1.70;1.60;;;;;;;16.78;71.37;95682.91;5013644;28;20081;-80
2023/09/22 09:44:33;;;;;;;2.42;1.30;;;;;;;16.86;72.43;95723.88;5129366;22;20101;-80
2023/09/22 09:59:15;;;;;;;3.40;1.48;;;;;;;17.01;70.97;95721.44;5967781;22;20058;-82
2023/09/22 10:02:37;;;;;;;1.88;1.25;;;;;;;17.10;71.46;95719.19;4962787;29;20051;-80
2023/09/22 10:05:15;;;;;;;5.38;1.23;;;;;;;17.12;70.49;95709.22;4960818;29;20055;-81
2023/09/22 10:29:00;;;;;;;2.03;1.42;;;;;;;17.20;72.35;95713.25;5472209;22;20064;-80
2023/09/22 10:31:28;;;;;;;3.33;1.80;;;;;;;17.25;73.17;95718.56;5000741;28;20078;-79
2023/09/22 10:33:56;;;;;;;4.13;1.33;;;;;;;17.29;72.93;95714.41;4998469;28;20501;-79
2023/09/22 10:36:47;;;;;;;1.30;1.05;;;;;;;17.33;71.77;95717.34;4999038;28;20113;-79
2023/09/22 10:39:15;;;;;;;3.33;1.48;;;;;;;17.32;71.65;95711.28;4997891;28;20058;-74
2023/09/22 10:42:00;;;;;;;2.97;1.55;;;;;;;17.30;72.79;95708.88;4983347;28;20045;-79
2023/09/22 10:52:28;;;;;;;0.82;0.82;;;;;;;17.29;70.08;95707.31;4962271;23;20048;-82
2023/09/22 10:54:56;;;;;;;1.83;0.98;;;;;;;17.25;70.58;95716.75;4997866;28;20108;-82
2023/09/22 10:57:25;;;;;;;1.75;0.90;;;;;;;17.23;70.14;95716.19;4997674;28;20050;-80
2023/09/22 11:31:11;;;;;;;1.20;0.90;;;;;;;17.40;71.05;95688.94;5976805;23;20856;-79
2023/09/22 11:33:39;;;;;;;0.68;0.65;;;;;;;17.38;70.17;95696.31;4997607;28;20054;-78
2023/09/22 11:36:07;;;;;;;0.82;0.75;;;;;;;17.35;71.05;95710.00;4997488;28;20054;-78
2023/09/22 11:38:39;;;;;;;0.43;0.40;;;;;;;17.32;69.51;95707.84;4996835;28;20081;-76
2023/09/22 12:49:00;;;;;;;4.20;0.70;;;;;;;17.05;66.03;95753.34;5798272;23;20077;-80
2023/09/22 12:51:28;;;;;;;3.78;0.63;;;;;;;17.01;66.07;95754.88;4975681;28;20059;-79
2023/09/22 12:53:56;;;;;;;1.52;0.50;;;;;;;16.99;66.36;95759.59;4974801;28;20050;-80
2023/09/22 12:56:23;;;;;;;1.77;0.50;;;;;;;16.98;67.23;95769.34;4975496;28;20558;-80
2023/09/22 12:58:51;;;;;;;1.25;0.75;;;;;;;16.96;67.39;95760.09;4975391;28;20050;-80
2023/09/22 13:01:19;;;;;;;1.90;0.30;;;;;;;16.96;66.78;95746.91;4975033;28;20085;-80
2023/09/22 13:03:47;;;;;;;1.73;0.40;;;;;;;16.93;66.48;95728.97;4975323;28;20463;-79
2023/09/22 13:06:16;;;;;;;2.17;0.45;;;;;;;16.89;66.51;95708.38;4975450;28;20055;-81
2023/09/22 13:08:44;;;;;;;0.60;0.38;;;;;;;16.89;66.05;95708.38;4975071;28;20054;-80
2023/09/22 13:19:17;;;;;;;3.15;0.68;;;;;;;16.80;68.01;95698.50;5284397;23;20105;-79
2023/09/22 13:24:22;;;;;;;2.38;0.28;;;;;;;16.87;68.15;95715.72;5168089;22;20054;-80
2023/09/22 13:26:50;;;;;;;2.30;0.43;;;;;;;16.94;69.34;95709.47;4994694;28;20051;-79
2023/09/22 13:29:18;;;;;;;0.88;0.45;;;;;;;16.97;67.20;95695.84;4994778;28;20521;-79
2023/09/22 13:31:46;;;;;;;0.57;0.40;;;;;;;17.02;66.14;95698.53;4995114;28;20050;-80
2023/09/22 13:34:13;;;;;;;1.35;0.50;;;;;;;17.01;65.67;95699.56;4994906;28;20070;-79
2023/09/22 13:36:42;;;;;;;2.53;0.75;;;;;;;17.05;66.87;95705.94;4978138;28;20522;-78
2023/09/22 13:44:34;;;;;;;1.77;0.40;;;;;;;17.00;64.81;95684.81;5824411;23;20812;-79
2023/09/22 13:54:02;;;;;;;0.35;0.22;;;;;;;16.99;64.88;95717.44;4987405;28;20086;-80
2023/09/22 13:56:32;;;;;;;0.52;0.40;;;;;;;16.98;64.09;95705.31;4983490;28;20059;-80
2023/09/22 13:59:15;;;;;;;1.33;0.10;;;;;;;16.95;64.14;95692.66;4983640;28;20061;-80
2023/09/22 14:01:58;;;;;;;1.25;0.20;;;;;;;16.98;63.49;95700.06;4976184;28;20047;-80
2023/09/22 14:33:04;;;;;;;0.82;0.17;;;;;;;16.85;61.86;95704.63;4866809;29;20053;-81
2023/09/22 15:14:28;;;;;;;0.63;0.15;;;;;;;16.65;61.86;95731.44;6010529;23;20548;-81
2023/09/22 15:17:55;;;;;;;1.48;0.30;;;;;;;16.67;63.38;95725.94;4983612;28;20137;-81
2023/09/22 15:48:18;;;;;;;1.20;0.20;;;;;;;16.63;60.97;95724.84;5229706;23;20136;-81
2023/09/22 15:53:41;;;;;;;0.65;0.30;;;;;;;16.61;62.46;95726.91;5273070;23;20144;-81
2023/09/22 16:18:35;;;;;;;1.00;0.93;;;;;;;16.75;61.29;95732.63;4934560;29;20083;-81
2023/09/22 16:24:37;;;;;;;0.80;0.73;;;;;;;16.75;62.66;95722.91;5060507;23;20115;-82
2023/09/22 16:57:28;;;;;;;3.47;0.75;;;;;;;16.36;63.02;95749.19;4920911;29;20063;-81
2023/09/22 17:03:46;;;;;;;1.40;1.20;;;;;;;16.26;63.92;95746.38;5050842;23;20119;-80
2023/09/22 17:19:30;;;;;;;1.33;0.90;;;;;;;16.16;65.24;95751.47;5063852;23;20080;-78
2023/09/22 17:21:58;;;;;;;1.30;0.90;;;;;;;16.18;65.50;95759.91;4845062;29;20050;-79
2023/09/22 17:27:36;;;;;;;3.25;0.70;;;;;;;16.19;66.20;95756.25;4844863;29;20209;-79
2023/09/22 17:30:12;;;;;;;1.00;0.63;;;;;;;16.19;66.50;95757.06;4826324;29;20456;-77
2023/09/22 17:32:40;;;;;;;1.17;1.08;;;;;;;16.20;66.34;95760.47;4824909;29;20427;-78
2023/09/22 17:39:17;;;;;;;2.60;1.60;;;;;;;16.10;67.06;95760.31;4843843;29;20061;-79
2023/09/22 17:44:51;;;;;;;7.72;0.80;;;;;;;15.91;65.28;95757.88;5721044;23;20062;-80
2023/09/22 17:47:19;;;;;;;1.17;0.60;;;;;;;15.81;65.10;95766.41;4825279;29;20507;-80
2023/09/22 17:57:02;;;;;;;3.13;0.73;;;;;;;15.70;65.83;95748.81;4820575;29;20120;-80
2023/09/22 18:00:25;;;;;;;1.42;0.52;;;;;;;15.72;66.21;95752.03;4807699;29;20061;-80
2023/09/22 18:03:13;;;;;;;10.05;1.08;;;;;;;15.66;66.04;95758.19;4807135;29;20063;-81
2023/09/22 18:09:29;;;;;;;7.53;0.90;;;;;;;15.54;66.42;95762.69;4807557;29;20055;-80
2023/09/22 18:14:37;;;;;;;3.80;1.13;;;;;;;15.40;66.17;95775.28;4966416;23;20426;-80
2023/09/22 18:17:06;;;;;;;2.47;1.17;;;;;;;15.36;66.39;95774.94;4843422;29;20073;-80
2023/09/22 18:26:23;;;;;;;2.95;1.00;;;;;;;15.36;67.18;95800.44;4805440;29;20114;-80
2023/09/22 18:29:28;;;;;;;2.20;0.70;;;;;;;15.36;68.66;95811.72;4804330;29;20096;-80
2023/09/22 18:32:27;;;;;;;4.05;0.90;;;;;;;15.35;66.97;95825.09;4804760;29;20082;-80
2023/09/22 18:35:04;;;;;;;1.95;0.73;;;;;;;15.29;67.75;95812.91;4804571;29;20510;-80
2023/09/22 18:37:50;;;;;;;3.92;0.90;;;;;;;15.21;67.20;95814.03;4814804;29;20034;-80
2023/09/22 18:40:28;;;;;;;3.17;2.05;;;;;;;15.13;67.29;95817.00;4808506;29;20059;-80
2023/09/22 18:43:11;;;;;;;1.70;1.17;;;;;;;15.09;67.69;95831.66;4790620;29;20115;-80
2023/09/22 18:45:41;;;;;;;0.55;0.50;;;;;;;15.09;67.28;95832.44;4804737;29;20061;-80
2023/09/22 18:48:30;;;;;;;;;;;;;;;15.07;67.35;95842.38;4804859;29;20473;-80
2023/09/22 18:51:20;;;;;;;1.60;0.60;;;;;;;15.02;67.80;95844.88;4804753;29;20531;-81
2023/09/22 18:53:58;;;;;;;0.95;0.70;;;;;;;15.00;67.53;95841.69;4809767;29;20055;-81
2023/09/22 18:56:31;;;;;;;0.93;0.80;;;;;;;14.97;68.28;95842.13;4812335;29;20060;-80
2023/09/22 18:59:26;;;;;;;0.88;0.77;;;;;;;14.99;68.61;95845.34;4816943;29;20112;-81
2023/09/22 19:02:20;;;;;;;3.08;0.80;;;;;;;14.99;68.16;95847.97;4811787;29;20089;-80
2023/09/22 19:05:00;;;;;;;1.42;0.57;;;;;;;15.00;67.82;95855.63;4830465;29;20058;-80
2023/09/22 19:21:43;;;;;;;1.35;0.68;;;;;;;15.20;68.50;95925.41;5879753;23;20420;-81
2023/09/22 19:24:13;;;;;;;0.80;0.75;;;;;;;15.25;68.40;95925.53;4829047;29;20062;-81
2023/09/22 19:29:49;;;;;;;1.00;0.77;;;;;;;15.31;68.71;95945.66;4828739;29;20058;-80
2023/09/22 19:32:48;;;;;;;2.53;0.70;;;;;;;15.37;69.90;95949.19;4828509;29;20110;-80
